ペトロパブロフスク・カムチャツキー の空港の天気 - METARとTAF

ペトロパブロフスク・カムチャツキー空港 ( UHPP / PKC ) - ロシア ペトロパブロフスク・カムチャツキー
飛行場実況気象(Metar)
観測時間02/18 01:00 MAGT (02/17 14:00 UTC)
風向・風速北 4m/s
視程10km以上
天気現象
なし
気温-17℃
湿度71%
気圧995hPa
METARUHPP 171400Z 01004MPS 9999 NSC M17/M21 Q0995 R34L/CLRD70 NOSIG RMK QFE742/0990
過去の天気等 Google飛行場航空写真 Wunderground天気予報

過去48時間のMETAR

飛行場予報(TAF)
発表時間: 2/18 00:54 MAGT (2/17 13:54 UTC)
予報対象時間: 18日2時 MAGT ~ 19日8時 MAGT
風向・風速北 3m/s 瞬間風速 10m/s
視程10km以上
なし
18日11時 MAGT ~ 18日20時 MAGT に一時的に
風向・風速北西 3m/s 瞬間風速 12m/s
TAF UHPP 171354Z 1715/1821 01003G10MPS 9999 NSC TXM08/1803Z TNM20/1717Z
TEMPO 1800/1809 31003G12MPS